Time;durP1;ratioP1;P1;durP2;ratioP2;P2;SDS_P1;SDS_P2;PMS_P1;PMS_P2;Temp;Humidity;BMP_temperature;BMP_pressure;BME280_temperature;BME280_humidity;BME280_pressure;Samples;Min_cycle;Max_cycle;Signal;HPM_P1;HPM_P2
2021/12/28 00:00:42;;;;;;;24.33;11.80;;;10.90;99.90;;;;;;5021290;28;20053;-75
2021/12/28 00:03:08;;;;;;;22.45;11.93;;;10.90;99.90;;;;;;5037851;28;20120;-74
2021/12/28 00:05:34;;;;;;;21.75;11.05;;;10.90;99.90;;;;;;5034467;28;20442;-75
2021/12/28 00:07:59;;;;;;;19.63;10.77;;;10.90;99.90;;;;;;5033049;28;20017;-75
2021/12/28 00:10:25;;;;;;;23.45;12.82;;;10.90;99.90;;;;;;5031763;28;20043;-75
2021/12/28 00:12:51;;;;;;;18.88;9.57;;;10.80;99.90;;;;;;5031599;28;20021;-75
2021/12/28 00:18:03;;;;;;;17.30;10.93;;;10.80;99.90;;;;;;5031725;28;20041;-76
2021/12/28 00:20:36;;;;;;;19.83;10.25;;;10.80;99.90;;;;;;5032103;28;20590;-75
2021/12/28 00:23:09;;;;;;;17.67;10.35;;;10.90;99.90;;;;;;5029476;28;20014;-75
2021/12/28 00:25:35;;;;;;;19.27;10.85;;;10.90;99.90;;;;;;5030454;28;20052;-74
2021/12/28 00:28:01;;;;;;;23.08;10.25;;;10.90;99.90;;;;;;5030636;28;20022;-75
2021/12/28 00:30:29;;;;;;;20.75;11.63;;;10.90;99.90;;;;;;5030729;28;20031;-75
2021/12/28 00:32:56;;;;;;;27.65;12.70;;;10.90;99.90;;;;;;5031596;28;20057;-75
2021/12/28 00:35:30;;;;;;;30.15;15.05;;;10.80;99.90;;;;;;5032205;28;20534;-75
2021/12/28 00:37:56;;;;;;;24.50;11.10;;;10.80;99.90;;;;;;5021743;28;20029;-75
2021/12/28 00:40:22;;;;;;;24.08;14.57;;;10.70;99.90;;;;;;5030888;28;20120;-75
2021/12/28 00:42:48;;;;;;;25.38;14.93;;;10.70;99.90;;;;;;5030511;28;20563;-75
2021/12/28 00:45:15;;;;;;;29.83;17.17;;;10.80;99.90;;;;;;5029424;28;20109;-74
2021/12/28 00:47:42;;;;;;;30.40;19.83;;;10.80;99.90;;;;;;5032624;28;20032;-75
2021/12/28 00:50:10;;;;;;;29.55;19.20;;;10.80;99.90;;;;;;5031218;28;20033;-74
2021/12/28 00:52:36;;;;;;;34.55;19.95;;;10.70;99.90;;;;;;5029848;28;20056;-75
2021/12/28 00:55:04;;;;;;;29.98;18.02;;;10.70;99.90;;;;;;5030044;28;20033;-75
2021/12/28 00:57:30;;;;;;;31.98;17.40;;;10.80;99.90;;;;;;5029702;28;20462;-74
2021/12/28 00:59:56;;;;;;;28.85;16.80;;;10.70;99.90;;;;;;5030005;28;20117;-75
2021/12/28 01:02:22;;;;;;;30.92;16.92;;;10.70;99.90;;;;;;5032879;28;20361;-74
2021/12/28 01:04:48;;;;;;;25.30;13.18;;;10.80;99.90;;;;;;5029649;28;20056;-75
2021/12/28 01:07:14;;;;;;;25.98;14.98;;;10.80;99.90;;;;;;5029584;28;20073;-74
2021/12/28 01:09:41;;;;;;;28.27;14.98;;;10.80;99.90;;;;;;5028845;28;20486;-75
2021/12/28 01:12:08;;;;;;;26.60;13.75;;;10.80;99.90;;;;;;5028161;28;20534;-75
2021/12/28 01:14:34;;;;;;;26.83;13.57;;;10.80;99.90;;;;;;5030250;28;20079;-75
2021/12/28 01:17:00;;;;;;;20.63;8.65;;;10.90;99.90;;;;;;5029619;28;20021;-75
2021/12/28 01:19:28;;;;;;;23.00;9.75;;;10.90;99.90;;;;;;5028425;28;20061;-75
2021/12/28 01:21:54;;;;;;;23.73;10.23;;;11.00;99.90;;;;;;5020494;28;20026;-75
2021/12/28 01:24:20;;;;;;;22.30;10.60;;;11.10;99.90;;;;;;5028510;28;20029;-75
2021/12/28 01:26:46;;;;;;;23.95;11.73;;;11.10;99.90;;;;;;5030528;28;20026;-75
2021/12/28 01:29:12;;;;;;;23.77;10.98;;;11.10;99.90;;;;;;5029711;28;20047;-75
2021/12/28 01:31:38;;;;;;;27.25;11.88;;;11.10;99.90;;;;;;5028413;28;20399;-75
2021/12/28 01:34:05;;;;;;;21.25;12.73;;;11.10;99.90;;;;;;5027790;28;20029;-76
2021/12/28 01:36:31;;;;;;;27.08;14.38;;;11.10;99.90;;;;;;5028294;28;20032;-76
2021/12/28 01:38:57;;;;;;;28.67;15.90;;;11.10;99.90;;;;;;5028728;28;20190;-75
2021/12/28 01:41:23;;;;;;;29.17;16.45;;;11.10;99.90;;;;;;5031507;28;20103;-75
2021/12/28 01:43:56;;;;;;;26.65;17.38;;;11.10;99.90;;;;;;5027954;28;20025;-75
2021/12/28 01:46:21;;;;;;;29.92;18.17;;;10.90;99.90;;;;;;5028121;28;20037;-75
2021/12/28 01:48:47;;;;;;;26.67;15.07;;;10.80;99.90;;;;;;5025489;28;20018;-75
2021/12/28 01:51:21;;;;;;;24.60;13.90;;;10.80;99.90;;;;;;5028409;28;20491;-75
2021/12/28 01:53:49;;;;;;;23.90;13.63;;;10.90;99.90;;;;;;5028353;28;20053;-75
2021/12/28 01:56:26;;;;;;;22.45;12.80;;;10.90;99.90;;;;;;5015817;28;20391;-75
2021/12/28 01:58:52;;;;;;;27.95;15.30;;;11.00;99.90;;;;;;5027889;28;20033;-75
2021/12/28 02:01:19;;;;;;;31.25;16.83;;;11.00;99.90;;;;;;5030329;28;20045;-75
2021/12/28 02:03:45;;;;;;;27.30;18.33;;;11.00;99.90;;;;;;5032662;28;20061;-75
2021/12/28 02:06:11;;;;;;;31.83;19.25;;;11.00;99.90;;;;;;5036122;28;20041;-75
2021/12/28 02:08:38;;;;;;;32.47;18.80;;;10.90;99.90;;;;;;5010120;28;20506;-75
2021/12/28 02:11:05;;;;;;;31.10;19.50;;;10.80;99.90;;;;;;5030583;28;20041;-75
2021/12/28 02:13:31;;;;;;;31.77;18.55;;;10.80;99.90;;;;;;5031309;28;20072;-76
2021/12/28 02:15:58;;;;;;;32.17;17.70;;;10.80;99.90;;;;;;5035213;28;20049;-75
2021/12/28 02:18:26;;;;;;;30.75;16.65;;;10.80;99.90;;;;;;5035790;28;20052;-75
2021/12/28 02:20:53;;;;;;;31.90;17.77;;;10.80;99.90;;;;;;5036674;28;20041;-76
2021/12/28 02:23:20;;;;;;;26.95;18.08;;;10.90;99.90;;;;;;5038343;28;20029;-75
2021/12/28 02:25:46;;;;;;;31.25;18.13;;;10.90;99.90;;;;;;5034178;28;20049;-76
2021/12/28 02:28:14;;;;;;;30.02;18.77;;;10.90;99.90;;;;;;5037334;28;20091;-76
2021/12/28 02:30:46;;;;;;;30.30;19.17;;;10.90;99.90;;;;;;5038688;28;20496;-75
2021/12/28 02:33:13;;;;;;;34.67;20.15;;;10.90;99.90;;;;;;5031380;28;20559;-75
2021/12/28 02:35:39;;;;;;;35.53;19.73;;;10.90;99.90;;;;;;5041673;28;20048;-76
2021/12/28 02:38:07;;;;;;;34.67;19.30;;;10.80;99.90;;;;;;5039959;28;20032;-75
2021/12/28 02:40:35;;;;;;;33.88;19.55;;;10.80;99.90;;;;;;5038745;28;20043;-75
2021/12/28 02:43:03;;;;;;;25.38;13.77;;;10.80;99.90;;;;;;5015607;28;20035;-75
2021/12/28 02:45:33;;;;;;;32.03;19.02;;;10.80;99.90;;;;;;5034112;28;20018;-75
2021/12/28 02:47:59;;;;;;;30.55;19.50;;;10.90;99.90;;;;;;5041453;28;21482;-75
2021/12/28 02:50:29;;;;;;;31.65;19.70;;;10.90;99.90;;;;;;5038399;28;20025;-75
2021/12/28 02:52:55;;;;;;;33.55;19.80;;;10.80;99.90;;;;;;5036806;28;20102;-75
2021/12/28 02:55:25;;;;;;;30.90;18.75;;;10.80;99.90;;;;;;5034208;28;20545;-75
2021/12/28 02:58:03;;;;;;;36.28;19.65;;;10.80;99.90;;;;;;5032179;28;20021;-75
2021/12/28 03:00:39;;;;;;;40.25;20.85;;;10.80;99.90;;;;;;5034056;28;20162;-74
2021/12/28 03:03:17;;;;;;;33.47;21.00;;;10.80;99.90;;;;;;5041250;28;20049;-75
2021/12/28 03:05:46;;;;;;;29.02;17.67;;;10.80;99.90;;;;;;5021534;28;20091;-75
2021/12/28 03:08:13;;;;;;;27.55;13.50;;;10.80;99.90;;;;;;5039009;28;20476;-75
2021/12/28 03:10:40;;;;;;;25.42;10.77;;;10.80;99.90;;;;;;5028486;28;20033;-75
2021/12/28 03:13:08;;;;;;;24.83;7.93;;;10.90;99.90;;;;;;5034969;28;20032;-75
2021/12/28 03:15:34;;;;;;;22.52;8.27;;;11.00;99.90;;;;;;5035288;28;20117;-75
2021/12/28 03:18:00;;;;;;;24.02;10.82;;;11.10;99.90;;;;;;5038374;28;20492;-75
2021/12/28 03:20:26;;;;;;;32.03;15.75;;;11.20;99.90;;;;;;5035425;28;20035;-75
2021/12/28 03:22:52;;;;;;;26.88;11.35;;;11.10;99.90;;;;;;5030193;28;20029;-76
2021/12/28 03:25:18;;;;;;;31.92;16.95;;;11.10;99.90;;;;;;5033387;28;20109;-75
2021/12/28 03:27:44;;;;;;;34.17;19.42;;;11.10;99.90;;;;;;5034713;28;20607;-75
2021/12/28 03:30:13;;;;;;;37.60;21.38;;;11.10;99.90;;;;;;5029616;28;20080;-75
2021/12/28 03:32:38;;;;;;;34.20;19.67;;;11.00;99.90;;;;;;5036529;28;20021;-76
2021/12/28 03:35:07;;;;;;;33.05;20.60;;;10.90;99.90;;;;;;5030687;28;20086;-75
2021/12/28 03:37:34;;;;;;;39.17;21.42;;;10.80;99.90;;;;;;5031003;28;20167;-75
2021/12/28 03:40:01;;;;;;;35.22;21.02;;;10.80;99.90;;;;;;5034232;28;20057;-76
2021/12/28 03:42:26;;;;;;;35.63;20.73;;;10.80;99.90;;;;;;5038482;28;20075;-75
2021/12/28 03:44:53;;;;;;;35.28;20.17;;;10.80;99.90;;;;;;5036090;28;20029;-75
2021/12/28 03:47:18;;;;;;;36.30;20.70;;;10.80;99.90;;;;;;5027556;28;20511;-75
2021/12/28 03:49:44;;;;;;;32.67;19.20;;;10.80;99.90;;;;;;5028840;28;20033;-75
2021/12/28 03:52:10;;;;;;;29.50;18.67;;;10.80;99.90;;;;;;5035746;28;20029;-75
2021/12/28 03:54:36;;;;;;;34.45;19.08;;;10.80;99.90;;;;;;5037614;28;20030;-75
2021/12/28 03:57:03;;;;;;;35.75;19.70;;;10.80;99.90;;;;;;5036057;28;20022;-75
2021/12/28 03:59:30;;;;;;;32.70;19.85;;;10.80;99.90;;;;;;5037034;28;20029;-75
2021/12/28 04:01:56;;;;;;;35.38;20.27;;;10.80;99.90;;;;;;5030314;28;20060;-75
2021/12/28 04:04:22;;;;;;;34.38;19.85;;;10.80;99.90;;;;;;5034639;28;20076;-75
2021/12/28 04:06:48;;;;;;;28.98;18.67;;;10.80;99.90;;;;;;5035117;28;20040;-75
2021/12/28 04:09:20;;;;;;;33.22;19.98;;;10.90;99.90;;;;;;5036963;28;20032;-75
2021/12/28 04:11:47;;;;;;;30.98;19.33;;;10.90;99.90;;;;;;5034912;28;20071;-75
2021/12/28 04:14:13;;;;;;;31.80;19.77;;;10.90;99.90;;;;;;5033341;28;20044;-75
2021/12/28 04:16:38;;;;;;;35.33;20.35;;;10.90;99.90;;;;;;5031080;28;20021;-75
2021/12/28 04:19:05;;;;;;;31.80;19.77;;;10.80;99.90;;;;;;5034378;28;20034;-75
2021/12/28 04:21:33;;;;;;;32.97;19.45;;;10.80;99.90;;;;;;5036420;28;20549;-75
2021/12/28 04:23:59;;;;;;;31.20;19.88;;;10.80;99.90;;;;;;5033816;28;20548;-75
2021/12/28 04:26:26;;;;;;;35.65;20.38;;;10.80;99.90;;;;;;5030201;28;20510;-75
2021/12/28 04:28:52;;;;;;;35.38;19.05;;;10.80;99.90;;;;;;5036485;28;20033;-75
2021/12/28 04:31:18;;;;;;;31.92;19.55;;;10.80;99.90;;;;;;5025855;28;20079;-75
2021/12/28 04:33:44;;;;;;;33.00;19.13;;;10.80;99.90;;;;;;5033432;28;20038;-75
2021/12/28 04:36:13;;;;;;;32.10;19.55;;;10.80;99.90;;;;;;5019293;28;20079;-75
2021/12/28 04:38:39;;;;;;;34.33;18.25;;;10.80;99.90;;;;;;5036491;28;20026;-75
2021/12/28 04:41:08;;;;;;;35.42;19.98;;;10.80;99.90;;;;;;5036100;28;20037;-75
2021/12/28 04:43:34;;;;;;;36.53;19.88;;;10.80;99.90;;;;;;5032411;28;20446;-75
2021/12/28 04:46:00;;;;;;;37.67;21.15;;;10.80;99.90;;;;;;5029902;28;20102;-75
2021/12/28 04:48:26;;;;;;;30.63;18.17;;;10.70;99.90;;;;;;5037734;28;20515;-75
2021/12/28 04:50:52;;;;;;;28.25;15.48;;;10.70;99.90;;;;;;5035507;28;20038;-75
2021/12/28 04:53:18;;;;;;;27.83;15.57;;;10.70;99.90;;;;;;5016255;28;20562;-75
2021/12/28 04:55:46;;;;;;;26.73;15.20;;;10.80;99.90;;;;;;5013105;28;20036;-75
2021/12/28 04:58:13;;;;;;;26.60;13.35;;;10.80;99.90;;;;;;5009660;28;20066;-75
2021/12/28 05:00:40;;;;;;;26.50;13.98;;;10.90;99.90;;;;;;5014941;28;20438;-75
2021/12/28 05:03:06;;;;;;;26.73;12.60;;;11.00;99.90;;;;;;5015120;28;20018;-75
2021/12/28 05:05:33;;;;;;;25.38;13.35;;;11.00;99.90;;;;;;5013291;28;20025;-75
2021/12/28 05:07:58;;;;;;;24.50;13.00;;;11.00;99.90;;;;;;5007507;28;20022;-75
2021/12/28 05:10:24;;;;;;;25.50;12.70;;;11.00;99.90;;;;;;5001615;28;20557;-75
2021/12/28 05:12:50;;;;;;;23.15;11.63;;;11.00;99.90;;;;;;5011453;28;20076;-75
2021/12/28 05:15:17;;;;;;;22.67;12.02;;;11.00;99.90;;;;;;5012364;28;20440;-75
2021/12/28 05:17:43;;;;;;;22.95;11.60;;;11.00;99.90;;;;;;5011547;28;20105;-75
2021/12/28 05:20:10;;;;;;;26.38;13.13;;;11.00;99.90;;;;;;5014716;28;20040;-75
2021/12/28 05:22:36;;;;;;;30.80;12.82;;;11.00;99.90;;;;;;5010048;28;20506;-75
2021/12/28 05:25:03;;;;;;;25.90;13.48;;;11.00;99.90;;;;;;5007848;28;20030;-75
2021/12/28 05:27:29;;;;;;;26.73;14.05;;;11.00;99.90;;;;;;5016707;28;20650;-75
2021/12/28 05:29:55;;;;;;;29.40;14.77;;;11.00;99.90;;;;;;5013559;28;20137;-75
2021/12/28 05:32:20;;;;;;;27.98;14.63;;;10.90;99.90;;;;;;5016032;28;20080;-75
2021/12/28 05:34:46;;;;;;;33.53;14.52;;;10.80;99.90;;;;;;5011996;28;20558;-75
2021/12/28 05:37:12;;;;;;;28.88;13.55;;;10.80;99.90;;;;;;5011558;28;20034;-75
2021/12/28 05:39:38;;;;;;;31.98;13.60;;;10.90;99.90;;;;;;5014805;28;20042;-75
2021/12/28 05:42:04;;;;;;;28.10;14.18;;;10.90;99.90;;;;;;5007099;28;20388;-75
2021/12/28 05:44:30;;;;;;;30.50;13.23;;;10.90;99.90;;;;;;5020218;28;20026;-74
2021/12/28 05:46:56;;;;;;;29.85;14.50;;;10.90;99.90;;;;;;5015253;28;20029;-75
2021/12/28 05:49:25;;;;;;;33.42;15.60;;;10.80;99.90;;;;;;5011425;28;20040;-75
2021/12/28 05:51:52;;;;;;;29.10;14.52;;;10.80;99.90;;;;;;5013503;28;20022;-75
2021/12/28 05:54:18;;;;;;;33.53;15.63;;;10.80;99.90;;;;;;5034389;28;20501;-75
2021/12/28 05:56:45;;;;;;;31.00;15.13;;;10.90;99.90;;;;;;5038128;28;20029;-74
2021/12/28 05:59:11;;;;;;;30.45;13.98;;;10.90;99.90;;;;;;5033476;28;20032;-75
2021/12/28 06:01:37;;;;;;;30.05;14.00;;;10.90;99.90;;;;;;5030521;28;20025;-74
2021/12/28 06:04:04;;;;;;;29.27;13.38;;;11.00;99.90;;;;;;5031603;28;20037;-75
2021/12/28 06:06:29;;;;;;;32.92;13.23;;;11.00;99.90;;;;;;5031173;28;20542;-75
2021/12/28 06:08:55;;;;;;;36.95;15.82;;;11.20;99.90;;;;;;5031719;28;20034;-74
2021/12/28 06:11:21;;;;;;;32.45;15.48;;;11.10;99.90;;;;;;5032014;28;20476;-74
2021/12/28 06:13:47;;;;;;;44.80;14.88;;;11.10;99.90;;;;;;5028622;28;20034;-75
2021/12/28 06:16:15;;;;;;;33.08;14.73;;;11.20;99.90;;;;;;5030906;28;20480;-75
2021/12/28 06:18:41;;;;;;;36.03;13.85;;;11.20;99.90;;;;;;5030629;28;20034;-75
2021/12/28 06:21:07;;;;;;;39.08;15.43;;;11.20;99.90;;;;;;5030851;28;20376;-75
2021/12/28 06:23:33;;;;;;;33.83;14.18;;;11.30;99.90;;;;;;5033492;28;20028;-75
2021/12/28 06:25:59;;;;;;;35.45;14.57;;;11.30;99.90;;;;;;5027843;28;20500;-75
2021/12/28 06:28:25;;;;;;;33.78;13.98;;;11.30;99.90;;;;;;5017351;28;20083;-75
2021/12/28 06:30:53;;;;;;;29.05;11.32;;;11.30;99.90;;;;;;5030964;28;20032;-75
2021/12/28 06:33:20;;;;;;;34.67;13.43;;;11.40;99.90;;;;;;5030287;28;20456;-75
2021/12/28 06:35:45;;;;;;;32.47;13.82;;;11.40;99.90;;;;;;5032605;28;20114;-75
2021/12/28 06:38:11;;;;;;;39.47;14.32;;;11.40;99.90;;;;;;5028376;28;20076;-75
2021/12/28 06:40:37;;;;;;;33.63;14.60;;;11.30;99.90;;;;;;5030374;28;20507;-75
2021/12/28 06:43:03;;;;;;;39.15;15.05;;;11.30;99.90;;;;;;5030368;28;20033;-75
2021/12/28 06:45:29;;;;;;;36.00;15.45;;;11.20;99.90;;;;;;5029994;28;20404;-74
2021/12/28 06:47:54;;;;;;;37.28;14.63;;;11.20;99.90;;;;;;5031698;28;20748;-75
2021/12/28 06:50:20;;;;;;;36.63;14.05;;;11.20;99.90;;;;;;5038019;28;20033;-75
2021/12/28 06:52:46;;;;;;;37.90;14.30;;;11.20;99.90;;;;;;5031304;28;20174;-75
2021/12/28 06:55:12;;;;;;;30.38;12.75;;;11.20;99.90;;;;;;5031162;28;20046;-75
2021/12/28 06:57:38;;;;;;;37.15;14.32;;;11.20;99.90;;;;;;5027082;28;20018;-75
2021/12/28 07:00:08;;;;;;;36.15;14.18;;;11.20;99.90;;;;;;5035592;28;20038;-75
2021/12/28 07:02:33;;;;;;;36.83;15.52;;;11.20;99.90;;;;;;5038427;28;20041;-75
2021/12/28 07:04:59;;;;;;;39.42;15.15;;;11.20;99.90;;;;;;5018836;28;20518;-75
2021/12/28 07:07:25;;;;;;;34.13;14.38;;;11.20;99.90;;;;;;5030332;28;20079;-75
2021/12/28 07:09:51;;;;;;;38.60;14.57;;;11.30;99.90;;;;;;5019307;28;20116;-75
2021/12/28 07:12:16;;;;;;;42.67;15.50;;;11.30;99.90;;;;;;5038829;28;20030;-75
2021/12/28 07:14:42;;;;;;;38.17;15.48;;;11.30;99.90;;;;;;5025527;28;20518;-75
2021/12/28 07:17:08;;;;;;;34.05;15.88;;;11.20;99.90;;;;;;5038840;28;20029;-75
2021/12/28 07:19:34;;;;;;;36.97;14.27;;;11.20;99.90;;;;;;5034182;28;20403;-75
2021/12/28 07:22:00;;;;;;;35.30;14.05;;;11.30;99.90;;;;;;5035868;28;20032;-75
2021/12/28 07:24:26;;;;;;;36.30;12.82;;;11.30;99.90;;;;;;5039126;28;20021;-75
2021/12/28 07:26:53;;;;;;;26.85;11.15;;;11.30;99.90;;;;;;5023552;28;20029;-75
2021/12/28 07:29:19;;;;;;;28.45;10.95;;;11.30;99.90;;;;;;5040673;28;20029;-75
2021/12/28 07:31:45;;;;;;;23.67;10.00;;;11.40;99.90;;;;;;5034356;28;20044;-75
2021/12/28 07:34:11;;;;;;;23.45;9.05;;;11.40;99.90;;;;;;5034928;28;20045;-75
2021/12/28 07:36:36;;;;;;;25.05;7.90;;;11.50;99.90;;;;;;5031620;28;20033;-75
2021/12/28 07:39:03;;;;;;;26.35;7.13;;;11.50;99.90;;;;;;5032742;28;20114;-75
2021/12/28 07:41:29;;;;;;;24.73;7.22;;;11.50;99.90;;;;;;5033012;28;20025;-75
2021/12/28 07:43:55;;;;;;;16.65;6.15;;;11.60;99.90;;;;;;5030415;28;20030;-75
2021/12/28 07:46:21;;;;;;;12.38;4.35;;;11.60;99.90;;;;;;5031389;28;20507;-75
2021/12/28 07:48:47;;;;;;;17.00;3.65;;;11.70;99.90;;;;;;5031714;28;20122;-76
2021/12/28 07:51:13;;;;;;;12.40;3.60;;;11.80;99.90;;;;;;5031909;28;20530;-75
2021/12/28 07:53:51;;;;;;;8.80;3.20;;;11.90;99.90;;;;;;5033014;28;20084;-75
2021/12/28 07:56:17;;;;;;;9.07;3.03;;;11.90;99.90;;;;;;5031941;28;20046;-74
2021/12/28 07:58:43;;;;;;;12.27;3.47;;;12.00;99.90;;;;;;5031598;28;20031;-74
2021/12/28 08:01:08;;;;;;;12.80;3.50;;;12.00;99.90;;;;;;5031144;28;20496;-75
2021/12/28 08:03:34;;;;;;;11.20;4.28;;;12.00;99.90;;;;;;5030642;28;20025;-75
2021/12/28 08:06:00;;;;;;;12.68;3.50;;;12.00;99.90;;;;;;5038562;28;20484;-75
2021/12/28 08:08:26;;;;;;;12.20;3.50;;;11.90;99.90;;;;;;5040969;28;20028;-75
2021/12/28 08:10:51;;;;;;;12.18;4.00;;;11.90;99.90;;;;;;5030086;28;20021;-75
2021/12/28 08:13:17;;;;;;;10.43;3.78;;;11.90;99.90;;;;;;5029889;28;20033;-75
2021/12/28 08:15:43;;;;;;;10.25;3.25;;;11.90;99.90;;;;;;5037865;28;20105;-75
2021/12/28 08:18:09;;;;;;;8.75;3.55;;;11.90;99.90;;;;;;5037635;28;20030;-74
2021/12/28 08:20:38;;;;;;;10.38;3.38;;;12.00;99.90;;;;;;5039964;28;20037;-75
2021/12/28 08:23:05;;;;;;;9.82;4.03;;;11.90;99.90;;;;;;5034262;28;20040;-75
2021/12/28 08:25:31;;;;;;;9.52;3.58;;;11.90;99.90;;;;;;5032386;28;20500;-75
2021/12/28 08:27:58;;;;;;;12.73;4.38;;;11.90;99.90;;;;;;5036861;28;20040;-75
2021/12/28 08:30:23;;;;;;;10.18;3.53;;;11.90;99.90;;;;;;5037930;28;20065;-75
2021/12/28 08:32:49;;;;;;;9.75;3.88;;;11.90;99.90;;;;;;5038649;28;20071;-75
2021/12/28 08:35:16;;;;;;;12.10;4.22;;;11.90;99.90;;;;;;5037291;28;20041;-75
2021/12/28 08:37:43;;;;;;;10.32;3.03;;;11.80;99.90;;;;;;5032356;28;20025;-75
2021/12/28 08:40:10;;;;;;;6.82;2.55;;;11.90;99.90;;;;;;5035178;28;20372;-75
2021/12/28 08:42:36;;;;;;;7.55;2.40;;;11.90;99.90;;;;;;5037469;28;20018;-75
2021/12/28 08:45:03;;;;;;;8.27;2.65;;;12.10;99.90;;;;;;5019554;28;20091;-75
2021/12/28 08:47:29;;;;;;;11.18;3.80;;;12.20;99.90;;;;;;5037246;28;20486;-75
2021/12/28 08:49:56;;;;;;;6.45;2.60;;;12.20;99.90;;;;;;5021260;28;20017;-75
2021/12/28 08:52:23;;;;;;;10.13;3.03;;;12.30;99.90;;;;;;5029624;28;20099;-75
2021/12/28 08:54:49;;;;;;;7.80;2.95;;;12.40;99.90;;;;;;5029232;28;20089;-75
2021/12/28 08:57:17;;;;;;;7.25;2.63;;;12.60;99.90;;;;;;5028597;28;20022;-75
2021/12/28 08:59:43;;;;;;;10.25;2.63;;;12.70;99.90;;;;;;5031630;28;20025;-75
2021/12/28 09:02:09;;;;;;;7.40;3.13;;;12.70;99.90;;;;;;5029848;28;20082;-75
2021/12/28 09:04:36;;;;;;;6.72;3.20;;;12.70;99.90;;;;;;5029445;28;20025;-75
2021/12/28 09:07:03;;;;;;;9.90;3.00;;;12.70;99.90;;;;;;5029139;28;20586;-75
2021/12/28 09:09:28;;;;;;;7.53;2.67;;;12.70;99.90;;;;;;5028571;28;20071;-75
2021/12/28 09:11:54;;;;;;;6.82;2.60;;;12.70;99.90;;;;;;5030728;28;20064;-75
2021/12/28 09:14:20;;;;;;;8.73;2.55;;;12.80;99.90;;;;;;5031018;28;20025;-75
2021/12/28 09:16:45;;;;;;;5.60;2.40;;;12.90;99.90;;;;;;5028324;28;20037;-75
2021/12/28 09:19:11;;;;;;;5.18;2.20;;;12.90;99.90;;;;;;5028756;28;20558;-75
2021/12/28 09:21:37;;;;;;;7.32;2.33;;;12.90;99.90;;;;;;5026137;28;20029;-75
2021/12/28 09:24:03;;;;;;;7.78;2.55;;;13.00;99.90;;;;;;5030146;28;20197;-75
2021/12/28 09:26:29;;;;;;;6.55;2.03;;;13.00;99.90;;;;;;5027773;28;20116;-75
2021/12/28 09:28:54;;;;;;;6.32;2.13;;;13.10;99.90;;;;;;5028596;28;20563;-75
2021/12/28 09:31:20;;;;;;;6.80;2.47;;;13.10;99.90;;;;;;5029952;28;20040;-75
2021/12/28 09:33:46;;;;;;;9.20;2.78;;;13.10;99.90;;;;;;5032576;28;20270;-75
2021/12/28 09:36:14;;;;;;;9.55;3.30;;;13.10;99.90;;;;;;5037043;28;20036;-75
2021/12/28 09:38:42;;;;;;;8.90;3.35;;;13.20;99.90;;;;;;5038378;28;20544;-75
2021/12/28 09:41:08;;;;;;;12.88;3.90;;;13.20;99.90;;;;;;5033347;28;20078;-75
2021/12/28 09:43:33;;;;;;;7.97;2.78;;;13.20;99.90;;;;;;5031699;28;20030;-75
2021/12/28 09:46:00;;;;;;;4.35;1.80;;;13.20;99.90;;;;;;5035779;28;20442;-75
2021/12/28 09:48:26;;;;;;;5.88;2.08;;;13.20;99.90;;;;;;5035650;28;20083;-75
2021/12/28 09:50:52;;;;;;;4.30;2.00;;;13.30;99.90;;;;;;5002866;28;20030;-74
2021/12/28 09:53:17;;;;;;;4.07;1.70;;;13.30;99.90;;;;;;5038017;28;20084;-75
2021/12/28 09:55:43;;;;;;;4.93;1.70;;;13.30;99.90;;;;;;5035806;28;20531;-75
2021/12/28 09:58:10;;;;;;;4.05;1.40;;;13.30;99.90;;;;;;5031783;28;20442;-75
2021/12/28 10:00:36;;;;;;;4.45;1.60;;;13.30;99.90;;;;;;5031386;28;20025;-75
2021/12/28 10:03:02;;;;;;;7.90;1.77;;;13.40;99.90;;;;;;5028230;28;20148;-75
2021/12/28 10:05:29;;;;;;;4.07;1.60;;;13.50;99.90;;;;;;5024009;28;20022;-75
2021/12/28 10:07:58;;;;;;;3.80;1.38;;;13.50;99.90;;;;;;5028561;28;20535;-75
2021/12/28 10:10:33;;;;;;;4.80;1.52;;;13.60;99.90;;;;;;5030464;28;20456;-75
2021/12/28 10:13:05;;;;;;;3.30;1.30;;;13.60;99.90;;;;;;5033020;28;20025;-75
2021/12/28 10:15:37;;;;;;;4.60;1.35;;;13.60;99.90;;;;;;5033201;28;20034;-75
2021/12/28 10:18:08;;;;;;;3.00;1.15;;;13.60;99.90;;;;;;5036638;28;20063;-75
2021/12/28 10:20:46;;;;;;;3.90;1.80;;;13.60;99.90;;;;;;5034137;28;20036;-75
2021/12/28 10:23:16;;;;;;;4.97;1.58;;;13.60;99.90;;;;;;5030742;28;20188;-75
2021/12/28 10:25:48;;;;;;;6.18;1.65;;;13.60;99.90;;;;;;5028029;28;20029;-75
2021/12/28 10:28:29;;;;;;;6.47;2.00;;;13.60;99.90;;;;;;5019092;28;20484;-75
2021/12/28 10:31:09;;;;;;;8.70;2.33;;;13.60;99.90;;;;;;5003164;28;20030;-75
2021/12/28 10:33:37;;;;;;;5.43;1.63;;;13.60;99.90;;;;;;5032334;28;20535;-75
2021/12/28 10:36:07;;;;;;;5.63;1.60;;;13.70;99.90;;;;;;5036105;28;20067;-75
2021/12/28 10:38:38;;;;;;;4.55;1.83;;;13.70;99.90;;;;;;5033927;28;20540;-75
2021/12/28 10:41:10;;;;;;;6.25;2.20;;;13.70;99.90;;;;;;5028490;28;20025;-75
2021/12/28 10:43:39;;;;;;;5.97;2.13;;;13.70;99.90;;;;;;5029511;28;20017;-75
2021/12/28 10:46:10;;;;;;;8.05;2.20;;;13.80;99.90;;;;;;5032095;28;20033;-75
2021/12/28 10:48:47;;;;;;;6.03;2.30;;;13.90;99.90;;;;;;5033763;28;20076;-75
2021/12/28 10:51:21;;;;;;;9.63;2.33;;;14.00;99.90;;;;;;5023866;28;20084;-75
2021/12/28 10:54:07;;;;;;;6.13;2.00;;;14.00;99.90;;;;;;5039975;28;20030;-75
2021/12/28 10:56:34;;;;;;;6.75;2.00;;;14.00;99.90;;;;;;5038848;28;20120;-75
2021/12/28 10:59:00;;;;;;;5.13;1.65;;;14.10;99.90;;;;;;5036624;28;20505;-75
2021/12/28 11:01:32;;;;;;;3.78;1.70;;;14.20;99.90;;;;;;5034422;28;20060;-75
2021/12/28 11:04:12;;;;;;;6.75;2.13;;;14.20;99.90;;;;;;5031932;28;20067;-75
2021/12/28 11:06:44;;;;;;;5.68;1.77;;;14.30;99.90;;;;;;5033344;28;20454;-75
2021/12/28 11:09:15;;;;;;;6.35;1.90;;;14.30;99.90;;;;;;5040350;28;20029;-76
2021/12/28 11:11:41;;;;;;;8.15;2.38;;;14.40;99.90;;;;;;5038624;28;20029;-75
2021/12/28 11:14:10;;;;;;;6.18;1.92;;;14.40;99.90;;;;;;5040244;28;20040;-75
2021/12/28 11:16:37;;;;;;;7.68;1.85;;;14.50;99.90;;;;;;5033040;28;20025;-75
2021/12/28 11:19:05;;;;;;;6.70;1.90;;;14.50;99.90;;;;;;5032700;28;20026;-75
2021/12/28 11:21:35;;;;;;;4.43;2.00;;;14.50;99.90;;;;;;5032331;28;20079;-75
2021/12/28 11:24:13;;;;;;;4.65;1.70;;;14.40;99.90;;;;;;5036443;28;20069;-75
2021/12/28 11:26:45;;;;;;;5.03;1.98;;;14.40;99.90;;;;;;5035516;28;20032;-75
2021/12/28 11:29:15;;;;;;;3.72;1.75;;;14.40;99.90;;;;;;5039668;28;20124;-75
2021/12/28 11:31:41;;;;;;;4.57;1.73;;;14.40;99.90;;;;;;5037123;28;20041;-76
2021/12/28 11:34:11;;;;;;;5.72;1.75;;;14.40;99.90;;;;;;5033266;28;20032;-75
2021/12/28 11:36:47;;;;;;;3.45;1.40;;;14.50;99.90;;;;;;5021103;28;20041;-75
2021/12/28 11:39:19;;;;;;;4.95;1.40;;;14.50;99.90;;;;;;5039626;28;20021;-76
2021/12/28 11:41:48;;;;;;;4.43;1.60;;;14.60;99.90;;;;;;5038015;28;20034;-75
2021/12/28 11:44:15;;;;;;;5.07;1.90;;;14.70;99.90;;;;;;5038689;28;20551;-76
2021/12/28 11:46:41;;;;;;;8.75;3.17;;;14.70;99.90;;;;;;5036013;28;20021;-75
2021/12/28 11:49:08;;;;;;;10.02;3.08;;;14.80;99.90;;;;;;5031998;28;20489;-75
2021/12/28 11:51:34;;;;;;;9.00;3.13;;;14.80;99.90;;;;;;5021558;28;20380;-75
2021/12/28 11:54:06;;;;;;;9.55;3.60;;;14.80;99.90;;;;;;5019682;28;20049;-76
2021/12/28 11:56:36;;;;;;;7.75;3.65;;;14.80;99.90;;;;;;5036499;28;20026;-75
2021/12/28 11:59:19;;;;;;;7.97;3.58;;;14.70;99.90;;;;;;5036582;28;20078;-76
2021/12/28 12:02:11;;;;;;;6.03;2.60;;;14.60;99.90;;;;;;5026690;28;20030;-76
2021/12/28 12:04:55;;;;;;;5.88;2.85;;;14.60;99.90;;;;;;5025397;28;20018;-76
2021/12/28 12:07:24;;;;;;;5.30;2.30;;;14.60;99.90;;;;;;5032903;28;20075;-76
2021/12/28 12:09:49;;;;;;;3.40;1.50;;;14.60;99.90;;;;;;5034572;28;20519;-76
2021/12/28 12:12:30;;;;;;;4.20;1.77;;;14.60;99.90;;;;;;5034162;28;20036;-76
2021/12/28 12:14:58;;;;;;;3.85;1.77;;;14.70;99.90;;;;;;5013253;28;20523;-76
2021/12/28 12:17:39;;;;;;;4.10;2.08;;;14.70;99.90;;;;;;5032470;28;20147;-76
2021/12/28 12:20:18;;;;;;;4.07;2.03;;;14.70;99.90;;;;;;5029416;28;20040;-76
2021/12/28 12:22:50;;;;;;;5.32;2.17;;;14.80;99.90;;;;;;5035356;28;20032;-76
2021/12/28 12:25:19;;;;;;;5.35;2.15;;;14.80;99.90;;;;;;5029796;28;20170;-76
2021/12/28 12:27:49;;;;;;;5.03;1.73;;;14.80;99.90;;;;;;5034369;28;20029;-76
2021/12/28 12:30:17;;;;;;;4.35;1.60;;;14.90;99.90;;;;;;5036949;28;20080;-76
2021/12/28 12:32:55;;;;;;;4.13;1.90;;;14.90;99.90;;;;;;5036609;28;20026;-76
2021/12/28 12:35:32;;;;;;;4.35;1.30;;;15.00;99.90;;;;;;5036843;28;20044;-76
2021/12/28 12:38:27;;;;;;;5.10;2.10;;;15.10;99.90;;;;;;5026374;28;20029;-76